createdAt,value
2018-09-14T00:00:37.448Z,78.85
2018-09-14T00:03:08.592Z,78.61
2018-09-14T00:05:39.318Z,78.56
2018-09-14T00:08:10.179Z,79.02
2018-09-14T00:10:40.919Z,78.97
2018-09-14T00:13:11.616Z,78.53
2018-09-14T00:15:42.614Z,78.55
2018-09-14T00:18:13.356Z,78.41
2018-09-14T00:20:44.085Z,78.71
2018-09-14T00:23:14.803Z,78.97
2018-09-14T00:25:45.569Z,79.08
2018-09-14T00:28:16.283Z,79.75
2018-09-14T00:30:47.010Z,79.54
2018-09-14T00:33:17.760Z,79.72
2018-09-14T00:35:48.675Z,79.78
2018-09-14T00:38:19.448Z,79.59
2018-09-14T00:40:50.352Z,79.49
2018-09-14T00:43:21.050Z,79.22
2018-09-14T00:45:51.843Z,79.30
2018-09-14T00:48:22.912Z,79.19
2018-09-14T00:50:54.701Z,79.10
2018-09-14T00:53:25.505Z,79.14
2018-09-14T00:55:56.898Z,79.38
2018-09-14T00:58:27.676Z,79.16
2018-09-14T01:00:58.445Z,79.40
2018-09-14T01:03:29.300Z,79.46
2018-09-14T01:06:00.036Z,79.59
2018-09-14T01:08:30.768Z,79.45
2018-09-14T01:11:01.481Z,79.92
2018-09-14T01:13:32.308Z,80.08
2018-09-14T01:16:02.999Z,80.35
2018-09-14T01:18:34.435Z,80.61
2018-09-14T01:21:05.348Z,80.41
2018-09-14T01:23:36.086Z,80.61
2018-09-14T01:26:06.983Z,80.59
2018-09-14T01:28:37.696Z,80.41
2018-09-14T01:31:08.472Z,80.08
2018-09-14T01:33:39.208Z,80.11
2018-09-14T01:36:12.361Z,80.18
2018-09-14T01:38:43.114Z,80.35
2018-09-14T01:41:14.006Z,80.12
2018-09-14T01:43:44.721Z,79.99
2018-09-14T01:46:15.424Z,80.38
2018-09-14T01:48:46.109Z,81.50
2018-09-14T01:51:17.013Z,81.40
2018-09-14T01:53:47.742Z,80.94
2018-09-14T01:56:18.565Z,80.78
2018-09-14T01:58:49.247Z,81.67
2018-09-14T02:01:20.210Z,82.35
2018-09-14T02:03:51.152Z,81.87
2018-09-14T02:06:22.349Z,81.86
2018-09-14T02:08:53.229Z,82.56
2018-09-14T02:11:24.116Z,82.32
2018-09-14T02:13:54.834Z,83.05
2018-09-14T02:16:25.637Z,83.14
2018-09-14T02:18:56.424Z,83.51
2018-09-14T02:21:27.201Z,83.54
2018-09-14T02:23:58.053Z,83.32
2018-09-14T02:26:28.785Z,82.99
2018-09-14T02:28:59.536Z,82.92
2018-09-14T02:31:30.276Z,83.04
2018-09-14T02:34:01.433Z,83.02
2018-09-14T02:36:32.177Z,82.81
2018-09-14T02:39:03.084Z,82.87
2018-09-14T02:41:33.899Z,83.08
2018-09-14T02:44:04.660Z,83.03
2018-09-14T02:46:35.404Z,82.68
2018-09-14T02:49:06.360Z,82.61
2018-09-14T02:51:37.162Z,82.52
2018-09-14T02:54:08.816Z,82.39
2018-09-14T02:56:39.465Z,82.13
2018-09-14T02:59:10.171Z,82.02
2018-09-14T03:01:40.904Z,81.58
2018-09-14T03:04:11.589Z,81.54
2018-09-14T03:06:42.444Z,81.05
2018-09-14T03:09:13.147Z,81.29
2018-09-14T03:11:43.875Z,81.55
2018-09-14T03:14:14.587Z,81.65
2018-09-14T03:16:45.352Z,81.69
2018-09-14T03:19:16.167Z,81.92
2018-09-14T03:21:47.054Z,81.74
2018-09-14T03:24:17.725Z,81.53
2018-09-14T03:26:48.601Z,81.68
2018-09-14T03:29:19.436Z,81.57
2018-09-14T03:31:50.178Z,81.61
2018-09-14T03:34:21.008Z,81.71
2018-09-14T03:36:51.721Z,81.85
2018-09-14T03:39:22.582Z,81.92
2018-09-14T03:41:53.289Z,81.57
2018-09-14T03:44:24.075Z,81.59
2018-09-14T03:46:55.040Z,82.16
2018-09-14T03:49:25.794Z,81.60
2018-09-14T03:51:56.512Z,82.55
2018-09-14T03:54:27.354Z,83.16
2018-09-14T03:56:58.336Z,81.47
2018-09-14T03:59:29.604Z,80.84
2018-09-14T04:02:00.405Z,81.00
2018-09-14T04:04:31.290Z,81.23
2018-09-14T04:07:02.028Z,81.26
2018-09-14T04:09:32.747Z,81.26
2018-09-14T04:12:03.601Z,81.10
2018-09-14T04:14:34.539Z,81.53
2018-09-14T04:17:08.649Z,82.11
2018-09-14T04:19:39.379Z,81.58
2018-09-14T04:22:10.198Z,81.33
2018-09-14T04:24:41.069Z,81.53
2018-09-14T04:27:12.204Z,81.87
2018-09-14T04:29:42.960Z,82.34
2018-09-14T04:32:13.654Z,82.23
2018-09-14T04:34:44.556Z,82.19
2018-09-14T04:37:15.477Z,82.18
2018-09-14T04:39:46.209Z,82.58
2018-09-14T04:42:16.953Z,82.76
2018-09-14T04:44:47.976Z,82.73
2018-09-14T04:47:23.377Z,82.71
2018-09-14T04:49:54.262Z,82.40
2018-09-14T04:52:25.377Z,82.16
2018-09-14T04:54:56.127Z,82.78
2018-09-14T04:57:26.924Z,82.74
2018-09-14T04:59:57.703Z,82.81
2018-09-14T05:02:28.552Z,82.51
2018-09-14T05:04:59.534Z,82.71
2018-09-14T05:07:30.320Z,82.82
2018-09-14T05:10:01.916Z,82.87
2018-09-14T05:12:32.690Z,82.74
2018-09-14T05:15:03.365Z,83.04
2018-09-14T05:17:34.029Z,83.92
2018-09-14T05:20:04.874Z,84.17
2018-09-14T05:22:35.620Z,84.03
2018-09-14T05:25:06.647Z,83.76
2018-09-14T05:27:37.378Z,83.45
2018-09-14T05:30:08.233Z,84.24
2018-09-14T05:32:39.058Z,83.82
2018-09-14T05:35:10.232Z,83.42
2018-09-14T05:37:41.034Z,84.11
2018-09-14T05:40:11.764Z,84.24
2018-09-14T05:42:42.548Z,84.37
2018-09-14T05:45:13.196Z,84.82
2018-09-14T05:47:43.917Z,84.64
2018-09-14T05:50:14.598Z,84.59
2018-09-14T05:52:45.330Z,84.36
2018-09-14T05:55:16.080Z,84.75
2018-09-14T05:57:46.837Z,84.58
2018-09-14T06:00:17.528Z,84.48
2018-09-14T06:02:48.272Z,84.65
2018-09-14T06:05:19.047Z,83.82
2018-09-14T06:07:49.880Z,83.56
2018-09-14T06:10:20.714Z,84.20
2018-09-14T06:12:51.544Z,83.70
2018-09-14T06:15:22.516Z,83.17
2018-09-14T06:17:53.330Z,83.81
2018-09-14T06:20:24.652Z,83.27
2018-09-14T06:22:55.483Z,82.85
2018-09-14T06:25:26.832Z,82.88
2018-09-14T06:27:57.529Z,82.26
2018-09-14T06:30:28.304Z,81.95
2018-09-14T06:32:59.526Z,81.61
2018-09-14T06:35:30.347Z,81.56
2018-09-14T06:38:01.065Z,81.10
2018-09-14T06:40:31.879Z,80.37
2018-09-14T06:43:03.257Z,79.32
2018-09-14T06:45:34.004Z,78.00
2018-09-14T06:48:04.703Z,77.13
2018-09-14T06:50:35.440Z,75.82
2018-09-14T06:53:06.122Z,75.32
2018-09-14T06:55:36.807Z,74.17
2018-09-14T06:58:07.619Z,73.17
2018-09-14T07:00:38.326Z,72.28
2018-09-14T07:03:09.229Z,71.95
2018-09-14T07:05:40.020Z,70.31
2018-09-14T07:08:10.725Z,69.14
2018-09-14T07:10:41.481Z,68.25
2018-09-14T07:13:12.161Z,66.54
2018-09-14T07:15:42.850Z,65.46
2018-09-14T07:18:13.658Z,64.42
2018-09-14T07:20:44.404Z,62.83
2018-09-14T07:23:15.246Z,61.66
2018-09-14T07:25:46.151Z,60.26
2018-09-14T07:28:17.799Z,59.44
2018-09-14T07:30:48.699Z,58.89
2018-09-14T07:33:19.560Z,57.63
2018-09-14T07:35:50.348Z,55.66
2018-09-14T07:38:21.198Z,54.07
2018-09-14T07:40:52.095Z,52.58
2018-09-14T07:43:23.489Z,51.32
2018-09-14T07:45:54.270Z,51.12
2018-09-14T07:48:25.204Z,49.54
2018-09-14T07:50:55.910Z,49.24
2018-09-14T07:53:26.732Z,48.31
2018-09-14T07:55:57.545Z,47.98
2018-09-14T07:58:29.212Z,47.19
2018-09-14T08:00:59.986Z,47.28
2018-09-14T08:03:32.389Z,45.25
2018-09-14T08:06:03.192Z,45.51
2018-09-14T08:08:33.903Z,45.67
2018-09-14T08:11:04.652Z,45.38
2018-09-14T08:13:35.421Z,44.91
2018-09-14T08:16:06.274Z,44.39
2018-09-14T08:18:37.150Z,43.21
2018-09-14T08:21:07.968Z,42.61
2018-09-14T08:23:38.971Z,42.49
2018-09-14T08:26:09.802Z,41.04
2018-09-14T08:28:40.584Z,40.18
2018-09-14T08:31:11.392Z,40.71
2018-09-14T08:33:42.270Z,40.61
2018-09-14T08:36:13.053Z,39.96
2018-09-14T08:38:43.888Z,38.94
2018-09-14T08:41:14.961Z,39.50
2018-09-14T08:46:26.914Z,39.84
2018-09-14T08:48:57.804Z,38.79
2018-09-14T08:51:28.505Z,38.81
2018-09-14T08:53:59.329Z,37.81
2018-09-14T08:56:30.447Z,38.75
2018-09-14T08:59:01.370Z,39.33
2018-09-14T09:01:32.367Z,39.49
2018-09-14T09:04:03.634Z,38.10
2018-09-14T09:06:34.362Z,37.49
2018-09-14T09:09:08.580Z,37.65
2018-09-14T09:11:39.710Z,36.18
2018-09-14T09:14:10.549Z,36.22
2018-09-14T09:16:41.553Z,34.80
2018-09-14T09:19:12.308Z,34.24
2018-09-14T09:21:43.056Z,33.48
2018-09-14T09:24:13.847Z,33.39
2018-09-14T09:26:44.807Z,31.60
2018-09-14T09:29:16.725Z,31.58
2018-09-14T09:31:47.992Z,31.75
2018-09-14T09:34:18.754Z,31.12
2018-09-14T09:36:49.992Z,31.50
2018-09-14T09:39:20.924Z,30.76
2018-09-14T09:41:51.832Z,29.99
2018-09-14T09:44:22.579Z,30.04
2018-09-14T09:46:53.493Z,30.63
2018-09-14T09:49:24.469Z,30.21
2018-09-14T09:51:55.281Z,28.00
2018-09-14T09:54:26.042Z,28.40
2018-09-14T09:56:56.810Z,30.72
2018-09-14T09:59:27.662Z,29.30
2018-09-14T10:02:03.448Z,30.80
2018-09-14T10:04:52.417Z,30.95
2018-09-14T10:10:33.444Z,31.94
2018-09-14T10:16:08.678Z,34.97
2018-09-14T10:18:45.910Z,30.01
2018-09-14T10:21:43.598Z,27.71
2018-09-14T10:24:14.548Z,29.01
2018-09-14T10:26:46.270Z,30.22
2018-09-14T10:29:17.067Z,30.17
2018-09-14T10:31:48.205Z,31.73
2018-09-14T10:34:20.378Z,31.61
2018-09-14T10:36:53.307Z,30.11
2018-09-14T10:39:30.443Z,30.97
2018-09-14T10:42:01.405Z,30.41
2018-09-14T10:44:33.060Z,29.01
2018-09-14T10:47:10.446Z,29.75
2018-09-14T10:49:47.850Z,30.11
2018-09-14T10:52:18.697Z,30.23
2018-09-14T10:54:49.488Z,30.53
2018-09-14T10:57:20.359Z,31.12
2018-09-14T10:59:52.044Z,32.28
2018-09-14T11:02:24.322Z,32.35
2018-09-14T11:04:55.250Z,32.97
2018-09-14T11:07:26.055Z,32.61
2018-09-14T11:09:57.854Z,32.39
2018-09-14T11:12:29.037Z,32.18
2018-09-14T11:14:59.959Z,32.86
2018-09-14T11:17:30.983Z,33.20
2018-09-14T11:20:01.856Z,34.30
2018-09-14T11:22:32.665Z,32.84
2018-09-14T11:25:03.553Z,33.53
2018-09-14T11:27:34.467Z,33.01
2018-09-14T11:30:06.134Z,30.49
2018-09-14T11:32:36.856Z,31.45
2018-09-14T11:35:07.619Z,30.79
2018-09-14T11:37:38.310Z,32.66
2018-09-14T11:40:09.100Z,33.25
2018-09-14T11:42:39.809Z,34.29
2018-09-14T11:45:10.647Z,34.52
2018-09-14T11:47:41.361Z,33.99
2018-09-14T11:50:12.207Z,34.17
2018-09-14T11:52:42.916Z,34.72
2018-09-14T11:55:13.647Z,33.61
2018-09-14T11:57:44.308Z,33.62
2018-09-14T12:00:15.231Z,33.58
2018-09-14T12:02:45.965Z,34.91
2018-09-14T12:05:16.718Z,33.34
2018-09-14T12:07:47.417Z,32.03
2018-09-14T12:10:18.343Z,32.33
2018-09-14T12:12:49.001Z,32.80
2018-09-14T12:15:19.737Z,32.71
2018-09-14T12:17:50.425Z,31.66
2018-09-14T12:20:21.125Z,32.32
2018-09-14T12:22:51.788Z,30.00
2018-09-14T12:25:22.528Z,31.15
2018-09-14T12:27:53.277Z,30.46
2018-09-14T12:30:24.054Z,31.77
2018-09-14T12:32:54.995Z,33.03
2018-09-14T12:35:25.765Z,33.59
2018-09-14T12:37:56.597Z,33.29
2018-09-14T12:40:27.347Z,33.74
2018-09-14T12:42:58.338Z,34.22
2018-09-14T12:45:29.225Z,33.79
2018-09-14T12:48:00.015Z,34.30
2018-09-14T12:50:30.762Z,34.69
2018-09-14T12:53:01.766Z,34.67
2018-09-14T12:55:32.496Z,33.82
2018-09-14T12:58:03.232Z,33.68
2018-09-14T13:00:33.886Z,33.79
2018-09-14T13:03:04.631Z,33.55
2018-09-14T13:05:35.341Z,33.54
2018-09-14T13:08:06.064Z,33.63
2018-09-14T13:10:36.772Z,34.28
2018-09-14T13:13:07.588Z,32.92
2018-09-14T13:15:38.240Z,32.07
2018-09-14T13:18:09.048Z,31.86
2018-09-14T13:20:39.735Z,30.76
2018-09-14T13:23:10.446Z,30.60
2018-09-14T13:25:41.171Z,31.08
2018-09-14T13:28:11.900Z,30.59
2018-09-14T13:30:42.639Z,30.93
2018-09-14T13:33:13.455Z,30.48
2018-09-14T13:35:44.153Z,29.97
2018-09-14T13:38:14.933Z,29.23
2018-09-14T13:40:45.650Z,29.12
2018-09-14T13:43:16.360Z,29.71
2018-09-14T13:45:47.090Z,31.51
2018-09-14T13:48:17.842Z,31.59
2018-09-14T13:50:48.695Z,31.88
2018-09-14T13:53:19.617Z,32.16
2018-09-14T13:55:51.025Z,32.85
2018-09-14T13:58:22.843Z,31.76
2018-09-14T14:00:53.574Z,32.03
2018-09-14T14:03:24.281Z,32.00
2018-09-14T14:05:55.562Z,31.34
2018-09-14T14:08:28.835Z,31.22
2018-09-14T14:11:00.879Z,32.23
2018-09-14T14:13:36.147Z,32.02
2018-09-14T14:16:07.145Z,31.85
2018-09-14T14:18:38.026Z,32.09
2018-09-14T14:21:09.797Z,30.78
2018-09-14T14:23:40.572Z,31.39
2018-09-14T14:26:12.094Z,30.84
2018-09-14T14:28:42.880Z,29.45
2018-09-14T14:31:13.546Z,29.12
2018-09-14T14:33:44.268Z,29.21
2018-09-14T14:36:15.660Z,29.47
2018-09-14T14:38:46.992Z,30.03
2018-09-14T14:41:17.750Z,29.66
2018-09-14T14:43:48.561Z,29.79
2018-09-14T14:46:19.323Z,29.31
2018-09-14T14:51:19.456Z,29.29
2018-09-14T14:53:50.212Z,29.98
2018-09-14T14:56:21.009Z,31.15
2018-09-14T14:58:51.692Z,31.79
2018-09-14T15:01:23.171Z,32.70
2018-09-14T15:03:54.008Z,32.79
2018-09-14T15:06:24.805Z,32.58
2018-09-14T15:08:55.599Z,32.40
2018-09-14T15:11:26.319Z,31.93
2018-09-14T15:13:57.127Z,32.14
2018-09-14T15:16:27.908Z,32.42
2018-09-14T15:18:58.611Z,32.81
2018-09-14T15:21:29.288Z,32.63
2018-09-14T15:24:00.008Z,32.41
2018-09-14T15:26:30.711Z,31.63
2018-09-14T15:29:01.343Z,30.13
2018-09-14T15:31:32.041Z,30.48
2018-09-14T15:34:02.800Z,30.67
2018-09-14T15:36:33.506Z,31.29
2018-09-14T15:39:06.201Z,31.32
2018-09-14T15:41:37.089Z,31.45
2018-09-14T15:44:08.034Z,32.00
2018-09-14T15:46:38.743Z,30.86
2018-09-14T15:49:09.490Z,30.67
2018-09-14T15:51:40.262Z,30.09
2018-09-14T15:54:10.943Z,30.02
2018-09-14T15:56:41.659Z,29.77
2018-09-14T15:59:12.309Z,29.64
2018-09-14T16:01:42.965Z,30.07
2018-09-14T16:04:14.192Z,31.13
2018-09-14T16:06:44.925Z,30.65
2018-09-14T16:09:15.556Z,30.17
2018-09-14T16:11:46.409Z,30.13
2018-09-14T16:14:17.209Z,30.80
2018-09-14T16:16:48.010Z,31.61
2018-09-14T16:19:20.246Z,31.53
2018-09-14T16:21:50.902Z,31.71
2018-09-14T16:24:21.711Z,31.90
2018-09-14T16:26:52.513Z,32.01
2018-09-14T16:29:23.178Z,31.81
2018-09-14T16:31:53.975Z,32.82
2018-09-14T16:34:24.602Z,32.56
2018-09-14T16:36:55.361Z,32.93
2018-09-14T16:39:26.044Z,32.91
2018-09-14T16:41:56.750Z,33.08
2018-09-14T16:44:27.470Z,33.24
2018-09-14T16:46:58.167Z,34.05
2018-09-14T16:49:28.862Z,33.44
2018-09-14T16:51:59.612Z,33.80
2018-09-14T16:54:30.283Z,33.77
2018-09-14T16:57:01.003Z,34.60
2018-09-14T16:59:31.698Z,34.43
2018-09-14T17:02:02.379Z,34.59
2018-09-14T17:04:33.092Z,34.99
2018-09-14T17:07:03.752Z,35.03
2018-09-14T17:09:34.537Z,35.68
2018-09-14T17:12:05.386Z,35.62
2018-09-14T17:14:36.190Z,36.23
2018-09-14T17:17:06.962Z,36.39
2018-09-14T17:19:47.277Z,36.46
2018-09-14T17:22:20.643Z,37.57
2018-09-14T17:24:52.769Z,38.32
2018-09-14T17:27:24.976Z,38.10
2018-09-14T17:29:56.528Z,38.38
2018-09-14T17:32:30.012Z,39.22
2018-09-14T17:35:02.288Z,39.00
2018-09-14T17:37:34.130Z,39.30
2018-09-14T17:40:05.003Z,39.04
2018-09-14T17:42:36.487Z,39.14
2018-09-14T17:45:07.482Z,39.50
2018-09-14T17:47:40.576Z,39.30
2018-09-14T17:50:12.092Z,40.17
2018-09-14T17:52:43.053Z,39.73
2018-09-14T17:55:14.486Z,40.15
2018-09-14T17:57:47.167Z,39.15
2018-09-14T18:00:19.805Z,39.47
2018-09-14T18:02:52.395Z,39.83
2018-09-14T18:05:23.524Z,39.98
2018-09-14T18:07:55.742Z,40.42
2018-09-14T18:10:26.490Z,41.35
2018-09-14T18:12:58.891Z,40.31
2018-09-14T18:15:31.565Z,40.77
2018-09-14T18:18:06.650Z,40.81
2018-09-14T18:20:39.704Z,40.88
2018-09-14T18:23:11.115Z,41.39
2018-09-14T18:25:42.320Z,41.65
2018-09-14T18:28:20.601Z,41.77
2018-09-14T18:30:51.856Z,42.07
2018-09-14T18:33:24.086Z,42.38
2018-09-14T18:35:55.025Z,42.62
2018-09-14T18:38:26.225Z,42.63
2018-09-14T18:40:57.283Z,43.19
2018-09-14T18:43:30.069Z,43.45
2018-09-14T18:46:00.845Z,44.18
2018-09-14T18:48:31.595Z,44.05
2018-09-14T18:51:02.823Z,44.63
2018-09-14T18:53:33.600Z,45.11
2018-09-14T18:56:04.395Z,45.07
2018-09-14T18:58:35.150Z,45.72
2018-09-14T19:01:05.940Z,45.95
2018-09-14T19:03:36.713Z,46.40
2018-09-14T19:06:07.624Z,46.54
2018-09-14T19:08:38.418Z,47.17
2018-09-14T19:11:09.228Z,47.89
2018-09-14T19:13:39.964Z,48.15
2018-09-14T19:16:12.631Z,49.06
2018-09-14T19:18:45.231Z,48.89
2018-09-14T19:21:16.017Z,48.90
2018-09-14T19:23:46.712Z,49.92
2018-09-14T19:26:17.487Z,50.48
2018-09-14T19:28:48.239Z,50.58
2018-09-14T19:31:19.089Z,51.24
2018-09-14T19:33:50.929Z,51.67
2018-09-14T19:36:22.026Z,51.40
2018-09-14T19:38:52.831Z,51.13
2018-09-14T19:41:28.162Z,51.00
2018-09-14T19:43:58.919Z,51.98
2018-09-14T19:46:29.723Z,51.61
2018-09-14T19:49:00.832Z,51.45
2018-09-14T19:51:32.848Z,51.71
2018-09-14T19:54:09.252Z,52.10
2018-09-14T19:56:40.049Z,52.80
2018-09-14T19:59:10.721Z,53.06
2018-09-14T20:01:42.385Z,53.80
2018-09-14T20:04:13.129Z,53.17
2018-09-14T20:06:43.815Z,53.39
2018-09-14T20:09:15.569Z,53.53
2018-09-14T20:12:00.048Z,53.79
2018-09-14T20:14:31.341Z,54.26
2018-09-14T20:17:02.077Z,54.39
2018-09-14T20:19:32.771Z,54.26
2018-09-14T20:22:06.087Z,54.60
2018-09-14T20:24:37.603Z,55.08
2018-09-14T20:27:08.416Z,55.76
2018-09-14T20:29:39.082Z,55.42
2018-09-14T20:32:11.609Z,55.95
2018-09-14T20:34:42.452Z,55.42
2018-09-14T20:37:16.043Z,55.26
2018-09-14T20:39:46.947Z,55.60
2018-09-14T20:42:17.700Z,55.50
2018-09-14T20:44:48.428Z,55.48
2018-09-14T20:47:19.290Z,55.19
2018-09-14T20:49:50.008Z,56.09
2018-09-14T20:52:21.297Z,56.41
2018-09-14T20:54:51.994Z,56.14
2018-09-14T20:57:22.808Z,56.24
2018-09-14T20:59:53.452Z,55.88
2018-09-14T21:02:24.228Z,56.32
2018-09-14T21:04:56.748Z,55.72
2018-09-14T21:07:27.596Z,56.06
2018-09-14T21:09:58.402Z,55.60
2018-09-14T21:12:29.164Z,55.91
2018-09-14T21:14:59.854Z,55.56
2018-09-14T21:17:30.685Z,55.75
2018-09-14T21:20:01.429Z,55.70
2018-09-14T21:22:32.196Z,55.97
2018-09-14T21:25:03.224Z,56.36
2018-09-14T21:27:34.001Z,56.35
2018-09-14T21:30:06.118Z,56.53
2018-09-14T21:32:37.739Z,56.15
2018-09-14T21:35:08.527Z,56.66
2018-09-14T21:37:39.269Z,56.19
2018-09-14T21:40:10.049Z,56.81
2018-09-14T21:42:40.837Z,57.04
2018-09-14T21:45:11.564Z,56.68
2018-09-14T21:47:42.328Z,56.78
2018-09-14T21:50:12.977Z,56.94
2018-09-14T21:52:43.702Z,56.86
2018-09-14T21:55:14.428Z,56.51
2018-09-14T21:57:45.147Z,56.76
2018-09-14T22:00:21.021Z,56.39
2018-09-14T22:02:51.780Z,56.46
2018-09-14T22:05:22.652Z,56.29
2018-09-14T22:07:53.428Z,56.74
2018-09-14T22:10:24.208Z,56.91
2018-09-14T22:12:54.945Z,56.95
2018-09-14T22:15:25.741Z,56.84
2018-09-14T22:17:56.460Z,56.61
2018-09-14T22:20:27.215Z,57.16
2018-09-14T22:22:57.964Z,56.87
2018-09-14T22:25:28.673Z,56.92
2018-09-14T22:27:59.455Z,57.14
2018-09-14T22:30:30.134Z,57.09
2018-09-14T22:33:00.905Z,57.22
2018-09-14T22:35:31.646Z,57.34
2018-09-14T22:38:02.439Z,57.72
2018-09-14T22:40:33.228Z,57.72
2018-09-14T22:43:04.299Z,57.88
2018-09-14T22:45:35.076Z,57.60
2018-09-14T22:48:05.828Z,57.85
2018-09-14T22:50:36.841Z,57.86
2018-09-14T22:53:07.620Z,58.23
2018-09-14T22:55:38.358Z,59.15
2018-09-14T22:58:09.263Z,58.71
2018-09-14T23:00:45.145Z,59.47
2018-09-14T23:03:15.940Z,59.50
2018-09-14T23:05:46.617Z,59.66
2018-09-14T23:08:17.359Z,60.07
2018-09-14T23:10:48.046Z,60.66
2018-09-14T23:13:18.867Z,60.75
2018-09-14T23:15:59.964Z,61.34
2018-09-14T23:18:31.632Z,61.86
2018-09-14T23:21:02.697Z,61.97
2018-09-14T23:23:33.524Z,61.86
2018-09-14T23:26:09.421Z,62.51
2018-09-14T23:28:40.107Z,63.05
2018-09-14T23:31:10.780Z,62.93
2018-09-14T23:33:41.472Z,63.04
2018-09-14T23:36:12.212Z,63.32
2018-09-14T23:38:42.911Z,64.31
2018-09-14T23:41:13.674Z,63.90
2018-09-14T23:43:44.786Z,64.36
2018-09-14T23:46:15.575Z,64.59
2018-09-14T23:48:46.285Z,65.10
2018-09-14T23:51:16.996Z,65.14
2018-09-14T23:53:47.723Z,65.58
2018-09-14T23:56:18.484Z,65.25
2018-09-14T23:58:49.246Z,65.24
